createdAt,value
2022-12-16T07:13:04.050Z,4.35
2022-12-16T07:15:49.432Z,5.49
2022-12-16T07:18:34.577Z,5.80
2022-12-16T07:21:19.375Z,5.85
2022-12-16T07:24:04.634Z,5.78
2022-12-16T07:26:49.607Z,6.04
2022-12-16T07:29:34.857Z,6.28
2022-12-16T07:32:19.700Z,6.38
2022-12-16T07:35:05.119Z,6.46
2022-12-16T07:37:50.026Z,6.60
2022-12-16T07:40:35.223Z,6.59
2022-12-16T07:43:20.285Z,6.54
2022-12-16T07:46:05.536Z,6.44
2022-12-16T07:48:50.692Z,5.72
2022-12-16T07:51:36.191Z,5.61
2022-12-16T07:54:38.120Z,5.70
2022-12-16T07:57:23.364Z,5.67
2022-12-16T08:00:08.637Z,5.63
2022-12-16T08:02:59.783Z,5.62
2022-12-16T08:05:44.987Z,5.64
2022-12-16T08:08:30.166Z,6.18
2022-12-16T08:11:15.478Z,6.05
2022-12-16T08:14:00.778Z,5.72
2022-12-16T08:16:46.237Z,6.05
2022-12-16T08:19:31.504Z,6.10
2022-12-16T08:22:16.687Z,6.29
2022-12-16T08:25:02.058Z,6.09
2022-12-16T08:27:47.361Z,6.10
2022-12-16T08:30:32.514Z,6.17
2022-12-16T08:33:30.876Z,5.94
2022-12-16T08:36:17.605Z,6.03
2022-12-16T08:39:02.664Z,6.37
2022-12-16T08:41:48.025Z,6.39
2022-12-16T08:44:33.265Z,6.43
2022-12-16T08:47:18.576Z,6.52
2022-12-16T08:50:03.541Z,6.63
2022-12-16T08:52:49.220Z,6.70
2022-12-16T08:55:34.763Z,6.70
2022-12-16T08:58:19.947Z,6.84
2022-12-16T09:01:07.733Z,6.73
2022-12-16T09:03:54.571Z,6.68
2022-12-16T09:06:40.899Z,6.62
2022-12-16T09:09:29.572Z,6.72
2022-12-16T09:12:14.800Z,6.70
2022-12-16T09:15:00.116Z,6.73
2022-12-16T09:17:45.403Z,6.75
2022-12-16T09:20:30.424Z,6.72
2022-12-16T09:23:15.551Z,6.73
2022-12-16T09:26:00.866Z,6.61
2022-12-16T09:28:46.029Z,6.70
2022-12-16T09:31:31.340Z,6.20
2022-12-16T09:34:16.606Z,6.29
2022-12-16T09:37:02.109Z,6.34
2022-12-16T09:39:47.160Z,6.68
2022-12-16T09:42:44.002Z,6.42
2022-12-16T09:45:57.225Z,6.31
2022-12-16T09:48:56.076Z,6.53
2022-12-16T09:51:43.315Z,6.50
2022-12-16T09:54:32.283Z,6.69
2022-12-16T09:57:20.879Z,6.61
2022-12-16T10:00:14.516Z,6.72
2022-12-16T10:03:06.584Z,6.52
2022-12-16T10:06:25.872Z,6.57
2022-12-16T10:09:42.390Z,6.54
2022-12-16T10:12:40.254Z,6.41
2022-12-16T10:15:52.188Z,6.56
2022-12-16T10:19:09.940Z,6.34
2022-12-16T10:22:36.673Z,6.47
2022-12-16T10:25:31.998Z,6.51
2022-12-16T10:28:34.876Z,6.55
2022-12-16T10:31:28.093Z,6.66
2022-12-16T10:34:16.341Z,6.69
2022-12-16T10:37:07.362Z,6.66
2022-12-16T10:39:58.420Z,6.72
2022-12-16T10:42:54.627Z,6.62
2022-12-16T10:45:48.139Z,6.53
2022-12-16T10:48:42.115Z,6.82
2022-12-16T10:51:33.678Z,6.71
2022-12-16T10:54:47.111Z,6.73
2022-12-16T10:57:42.486Z,6.66
2022-12-16T11:00:59.493Z,6.72
2022-12-16T11:03:50.239Z,6.75
2022-12-16T11:06:47.594Z,6.70
2022-12-16T11:09:49.529Z,6.38
2022-12-16T11:12:47.147Z,6.57
2022-12-16T11:15:46.579Z,6.32
2022-12-16T11:18:40.508Z,6.44
2022-12-16T11:21:34.332Z,6.37
2022-12-16T11:24:31.954Z,6.32
2022-12-16T11:27:19.881Z,6.42
2022-12-16T11:30:13.893Z,6.58
2022-12-16T11:33:05.335Z,6.62
2022-12-16T11:35:53.069Z,6.64
2022-12-16T11:38:47.405Z,6.59
2022-12-16T11:41:38.788Z,6.62
2022-12-16T11:44:26.429Z,6.72
2022-12-16T11:47:11.532Z,6.82
2022-12-16T11:49:56.614Z,6.82
2022-12-16T11:52:42.157Z,6.83
2022-12-16T11:59:08.984Z,6.72
2022-12-16T12:02:16.992Z,6.69
2022-12-16T12:05:02.793Z,6.74
2022-12-16T12:08:07.645Z,6.60
2022-12-16T12:11:15.821Z,6.70
2022-12-16T12:14:30.433Z,6.54
2022-12-16T12:17:37.652Z,6.66
2022-12-16T12:20:41.289Z,6.43
2022-12-16T12:23:29.234Z,6.63
2022-12-16T12:26:32.520Z,6.55
2022-12-16T12:29:57.442Z,6.37
2022-12-16T12:32:54.991Z,6.61
2022-12-16T12:36:07.185Z,6.62
2022-12-16T12:39:16.447Z,6.71
2022-12-16T12:42:21.574Z,6.68
2022-12-16T12:45:18.995Z,6.75
2022-12-16T12:48:22.668Z,6.85
2022-12-16T12:51:23.804Z,6.67
2022-12-16T12:54:18.010Z,6.70
2022-12-16T12:57:07.844Z,6.75
2022-12-16T13:00:12.784Z,6.59
2022-12-16T13:03:21.621Z,6.78
2022-12-16T13:06:07.950Z,6.78
2022-12-16T13:09:05.147Z,6.78
2022-12-16T13:11:50.500Z,6.80
2022-12-16T13:14:51.554Z,6.64
2022-12-16T13:17:38.637Z,6.71
2022-12-16T13:20:53.745Z,6.81
2022-12-16T13:23:48.039Z,6.85
2022-12-16T13:26:38.369Z,6.89
2022-12-16T13:29:45.634Z,7.01
2022-12-16T13:32:30.772Z,6.89
2022-12-16T13:35:23.745Z,6.62
2022-12-16T13:38:15.370Z,6.69
2022-12-16T13:41:18.802Z,6.69
2022-12-16T13:44:15.203Z,6.56
2022-12-16T13:47:03.728Z,6.59
2022-12-16T13:50:25.986Z,6.48
2022-12-16T13:53:17.222Z,6.57
2022-12-16T13:56:17.806Z,6.64
2022-12-16T13:59:09.329Z,6.68
2022-12-16T14:02:15.564Z,6.67
2022-12-16T14:05:06.473Z,6.56
2022-12-16T14:07:53.121Z,6.47
2022-12-16T14:10:44.200Z,6.46
2022-12-16T14:13:50.465Z,6.45
2022-12-16T14:16:57.890Z,6.54
2022-12-16T14:20:08.062Z,6.40
2022-12-16T14:23:32.495Z,6.50
2022-12-16T14:26:18.776Z,6.55
2022-12-16T14:29:06.174Z,6.58
2022-12-16T14:32:17.192Z,6.62
2022-12-16T14:35:02.383Z,6.82
2022-12-16T14:37:56.749Z,6.50
2022-12-16T14:40:44.043Z,6.45
2022-12-16T14:43:35.141Z,6.14
2022-12-16T14:46:21.106Z,6.28
2022-12-16T14:49:07.963Z,6.02
2022-12-16T14:52:06.314Z,6.00
2022-12-16T14:54:57.857Z,6.04
2022-12-16T14:57:46.220Z,6.04
2022-12-16T15:00:42.697Z,6.22
2022-12-16T15:03:36.648Z,6.26
2022-12-16T15:06:24.751Z,6.16
2022-12-16T15:09:14.960Z,6.11
2022-12-16T15:12:02.824Z,6.18
2022-12-16T15:14:52.060Z,5.78
2022-12-16T15:17:45.523Z,5.90
2022-12-16T15:20:44.097Z,5.84
2022-12-16T15:23:41.211Z,5.80
2022-12-16T15:26:27.445Z,5.90
2022-12-16T15:29:12.578Z,5.94
2022-12-16T15:32:03.110Z,6.02
2022-12-16T15:34:57.560Z,6.03
2022-12-16T15:37:48.668Z,5.82
2022-12-16T15:40:48.676Z,5.94
2022-12-16T15:43:47.424Z,5.95
2022-12-16T15:46:45.235Z,5.91
2022-12-16T15:49:53.218Z,5.87
2022-12-16T15:52:57.991Z,5.79
2022-12-16T15:56:04.529Z,5.92
2022-12-16T15:58:54.087Z,5.96
2022-12-16T16:01:45.624Z,5.65
2022-12-16T16:04:42.848Z,5.50
